createdAt,value
2023-01-03T00:06:04.181Z,6.86
2023-01-03T00:16:25.552Z,6.82
2023-01-03T00:26:47.035Z,6.73
2023-01-03T00:37:08.406Z,6.62
2023-01-03T00:47:29.755Z,6.46
2023-01-03T00:57:51.113Z,6.44
2023-01-03T01:08:12.492Z,6.31
2023-01-03T01:18:34.601Z,6.23
2023-01-03T01:28:56.095Z,6.18
2023-01-03T01:39:21.792Z,6.28
2023-01-03T01:49:43.988Z,6.31
2023-01-03T02:00:07.035Z,6.31
2023-01-03T02:10:51.026Z,6.34
2023-01-03T02:21:16.870Z,6.35
2023-01-03T02:31:41.025Z,6.35
2023-01-03T02:42:30.330Z,6.28
2023-01-03T02:52:54.993Z,6.22
2023-01-03T03:03:19.601Z,6.18
2023-01-03T03:13:45.633Z,6.06
2023-01-03T03:24:30.231Z,5.98
2023-01-03T03:34:52.800Z,5.89
2023-01-03T03:45:24.298Z,5.88
2023-01-03T03:56:00.327Z,5.78
2023-01-03T04:06:28.225Z,5.67
2023-01-03T04:16:49.636Z,5.54
2023-01-03T04:27:11.088Z,5.50
2023-01-03T04:37:32.724Z,5.44
2023-01-03T04:47:54.276Z,5.42
2023-01-03T04:58:15.775Z,5.41
2023-01-03T05:08:37.185Z,5.33
2023-01-03T05:18:59.088Z,5.26
2023-01-03T05:29:21.579Z,5.19
2023-01-03T05:39:42.997Z,5.07
2023-01-03T05:50:04.746Z,5.05
2023-01-03T06:00:26.140Z,5.07
2023-01-03T06:10:47.625Z,5.06
2023-01-03T06:21:09.102Z,4.98
2023-01-03T06:31:30.538Z,4.97
2023-01-03T06:41:51.965Z,4.98
2023-01-03T06:52:34.020Z,4.94
2023-01-03T07:02:55.502Z,4.97
2023-01-03T07:13:35.682Z,4.96
2023-01-03T07:23:58.161Z,4.94
2023-01-03T07:34:19.574Z,4.94
2023-01-03T07:44:40.988Z,4.97
2023-01-03T07:55:02.417Z,5.02
2023-01-03T08:05:24.475Z,4.89
2023-01-03T08:15:51.158Z,4.89
2023-01-03T08:26:13.855Z,4.95
2023-01-03T08:36:38.131Z,4.83
2023-01-03T08:47:02.634Z,4.86
2023-01-03T08:57:24.088Z,4.79
2023-01-03T09:07:45.458Z,4.81
2023-01-03T09:18:07.568Z,4.80
2023-01-03T09:28:29.068Z,4.76
2023-01-03T09:38:50.468Z,4.70
2023-01-03T09:49:13.433Z,4.76
2023-01-03T09:59:55.173Z,4.95
2023-01-03T10:10:16.577Z,5.03
2023-01-03T10:20:44.064Z,5.22
2023-01-03T10:31:14.806Z,5.21
2023-01-03T10:41:42.144Z,5.40
2023-01-03T10:52:12.239Z,5.67
2023-01-03T11:02:42.303Z,5.91
2023-01-03T11:13:22.671Z,6.05
2023-01-03T11:23:44.013Z,6.13
2023-01-03T11:34:21.431Z,6.26
2023-01-03T11:44:57.500Z,6.38
2023-01-03T11:55:44.506Z,6.51
2023-01-03T12:06:08.582Z,6.71
2023-01-03T12:16:33.159Z,6.82
2023-01-03T12:27:05.592Z,6.92
2023-01-03T12:37:29.802Z,7.07
2023-01-03T12:47:51.221Z,7.23
2023-01-03T12:58:12.571Z,7.37
2023-01-03T13:08:46.500Z,7.44
2023-01-03T13:19:20.150Z,7.45
2023-01-03T13:29:43.042Z,7.46
2023-01-03T13:40:18.262Z,7.57
2023-01-03T13:50:39.650Z,7.65
2023-01-03T14:01:06.218Z,7.69
2023-01-03T14:12:01.515Z,7.75
2023-01-03T14:22:31.647Z,7.82
2023-01-03T14:32:53.543Z,7.79
2023-01-03T14:43:21.100Z,7.81
2023-01-03T14:53:43.906Z,7.84
2023-01-03T15:04:06.024Z,7.91
2023-01-03T15:14:35.513Z,7.94
2023-01-03T15:25:04.750Z,7.93
2023-01-03T15:35:40.601Z,7.92
2023-01-03T15:46:10.794Z,7.98
2023-01-03T15:56:34.521Z,8.01
2023-01-03T16:06:55.942Z,8.06
2023-01-03T16:17:24.662Z,8.10
2023-01-03T16:27:46.417Z,8.13
2023-01-03T16:38:13.281Z,8.18
2023-01-03T16:48:38.959Z,8.22
2023-01-03T16:59:00.363Z,8.13
2023-01-03T17:09:31.945Z,8.11
2023-01-03T17:20:03.802Z,8.11
2023-01-03T17:30:27.418Z,8.11
2023-01-03T17:40:49.600Z,8.06
2023-01-03T17:51:12.506Z,8.00
2023-01-03T18:01:34.241Z,7.94
2023-01-03T18:11:55.761Z,7.91
2023-01-03T18:22:17.768Z,7.92
2023-01-03T18:32:39.128Z,7.88
2023-01-03T18:43:13.560Z,7.89
2023-01-03T18:53:35.410Z,7.84
2023-01-03T19:03:56.991Z,7.81
2023-01-03T19:14:18.633Z,7.77
2023-01-03T19:24:40.008Z,7.78
2023-01-03T19:35:01.370Z,7.77
2023-01-03T19:45:41.530Z,7.82
2023-01-03T19:56:03.209Z,7.86
2023-01-03T20:06:24.986Z,7.84
2023-01-03T20:16:47.004Z,7.82
2023-01-03T20:27:12.301Z,7.83
2023-01-03T20:37:33.660Z,7.86
2023-01-03T20:47:55.107Z,7.94
2023-01-03T20:58:17.727Z,7.95
2023-01-03T21:08:54.403Z,7.92
2023-01-03T21:19:17.084Z,7.92
2023-01-03T21:29:38.426Z,7.92
2023-01-03T21:39:59.773Z,7.95
2023-01-03T21:50:21.780Z,7.95
2023-01-03T22:00:43.434Z,7.96
2023-01-03T22:11:04.928Z,8.01
2023-01-03T22:21:26.757Z,8.02
2023-01-03T22:31:48.131Z,8.11
2023-01-03T22:42:13.311Z,8.09
2023-01-03T22:52:37.979Z,8.08
2023-01-03T23:03:01.160Z,8.10
2023-01-03T23:13:22.531Z,8.14
2023-01-03T23:23:43.929Z,8.14
2023-01-03T23:34:05.307Z,8.18
2023-01-03T23:44:26.710Z,8.11
2023-01-03T23:54:48.132Z,8.17
